sensor_id;sensor_type;location;lat;lon;timestamp;P1;durP1;ratioP1;P2;durP2;ratioP2
12968;SDS011;6549;53.128;8.182;2024-01-15T00:02:44;13.15;;;1.88;;
12968;SDS011;6549;53.128;8.182;2024-01-15T00:05:45;7.75;;;1.42;;
12968;SDS011;6549;53.128;8.182;2024-01-15T00:08:45;14.73;;;2.45;;
12968;SDS011;6549;53.128;8.182;2024-01-15T00:11:45;8.70;;;1.48;;
12968;SDS011;6549;53.128;8.182;2024-01-15T00:14:46;8.65;;;1.58;;
12968;SDS011;6549;53.128;8.182;2024-01-15T00:17:46;10.63;;;1.83;;
12968;SDS011;6549;53.128;8.182;2024-01-15T00:20:46;9.75;;;1.30;;
12968;SDS011;6549;53.128;8.182;2024-01-15T00:23:47;11.15;;;1.50;;
12968;SDS011;6549;53.128;8.182;2024-01-15T00:26:47;8.45;;;1.90;;
12968;SDS011;6549;53.128;8.182;2024-01-15T00:29:47;13.55;;;1.92;;
12968;SDS011;6549;53.128;8.182;2024-01-15T00:32:48;12.27;;;1.83;;
12968;SDS011;6549;53.128;8.182;2024-01-15T00:35:48;8.73;;;1.42;;
12968;SDS011;6549;53.128;8.182;2024-01-15T00:38:48;15.60;;;2.72;;
12968;SDS011;6549;53.128;8.182;2024-01-15T00:41:49;10.85;;;1.90;;
12968;SDS011;6549;53.128;8.182;2024-01-15T00:44:49;9.23;;;1.50;;
12968;SDS011;6549;53.128;8.182;2024-01-15T00:47:50;7.85;;;1.83;;
12968;SDS011;6549;53.128;8.182;2024-01-15T00:50:50;10.75;;;1.88;;
12968;SDS011;6549;53.128;8.182;2024-01-15T00:53:51;9.38;;;1.50;;
12968;SDS011;6549;53.128;8.182;2024-01-15T00:56:51;9.25;;;1.38;;
12968;SDS011;6549;53.128;8.182;2024-01-15T00:59:52;8.07;;;1.20;;
12968;SDS011;6549;53.128;8.182;2024-01-15T01:02:52;8.38;;;1.40;;
12968;SDS011;6549;53.128;8.182;2024-01-15T01:05:53;3.90;;;1.20;;
12968;SDS011;6549;53.128;8.182;2024-01-15T01:08:53;7.30;;;1.30;;
12968;SDS011;6549;53.128;8.182;2024-01-15T01:11:53;10.57;;;1.48;;
12968;SDS011;6549;53.128;8.182;2024-01-15T01:14:54;5.57;;;1.27;;
12968;SDS011;6549;53.128;8.182;2024-01-15T01:17:54;5.25;;;1.30;;
12968;SDS011;6549;53.128;8.182;2024-01-15T01:20:54;8.95;;;1.50;;
12968;SDS011;6549;53.128;8.182;2024-01-15T01:23:55;10.25;;;2.22;;
12968;SDS011;6549;53.128;8.182;2024-01-15T01:26:55;9.32;;;1.13;;
12968;SDS011;6549;53.128;8.182;2024-01-15T01:29:55;14.80;;;2.22;;
12968;SDS011;6549;53.128;8.182;2024-01-15T01:32:56;11.48;;;1.83;;
12968;SDS011;6549;53.128;8.182;2024-01-15T01:35:56;11.23;;;1.65;;
12968;SDS011;6549;53.128;8.182;2024-01-15T01:38:56;15.93;;;2.05;;
12968;SDS011;6549;53.128;8.182;2024-01-15T01:41:56;8.75;;;1.58;;
12968;SDS011;6549;53.128;8.182;2024-01-15T01:44:57;13.27;;;1.40;;
12968;SDS011;6549;53.128;8.182;2024-01-15T01:47:57;13.63;;;2.10;;
12968;SDS011;6549;53.128;8.182;2024-01-15T01:50:59;7.20;;;1.58;;
12968;SDS011;6549;53.128;8.182;2024-01-15T01:54:02;8.40;;;1.40;;
12968;SDS011;6549;53.128;8.182;2024-01-15T01:57:03;9.38;;;2.05;;
12968;SDS011;6549;53.128;8.182;2024-01-15T02:00:05;12.63;;;1.90;;
12968;SDS011;6549;53.128;8.182;2024-01-15T02:03:06;11.23;;;1.63;;
12968;SDS011;6549;53.128;8.182;2024-01-15T02:06:08;9.48;;;1.42;;
12968;SDS011;6549;53.128;8.182;2024-01-15T02:09:08;8.32;;;1.30;;
12968;SDS011;6549;53.128;8.182;2024-01-15T02:12:09;8.88;;;1.25;;
12968;SDS011;6549;53.128;8.182;2024-01-15T02:15:10;9.80;;;1.70;;
12968;SDS011;6549;53.128;8.182;2024-01-15T02:18:10;7.72;;;1.45;;
12968;SDS011;6549;53.128;8.182;2024-01-15T02:21:10;9.20;;;1.17;;
12968;SDS011;6549;53.128;8.182;2024-01-15T02:24:11;12.07;;;2.15;;
12968;SDS011;6549;53.128;8.182;2024-01-15T02:27:12;6.88;;;1.20;;
12968;SDS011;6549;53.128;8.182;2024-01-15T02:30:13;6.95;;;1.30;;
12968;SDS011;6549;53.128;8.182;2024-01-15T02:33:13;8.32;;;2.22;;
12968;SDS011;6549;53.128;8.182;2024-01-15T02:36:14;3.72;;;1.08;;
12968;SDS011;6549;53.128;8.182;2024-01-15T02:39:16;9.10;;;1.35;;
12968;SDS011;6549;53.128;8.182;2024-01-15T02:42:16;9.05;;;1.55;;
12968;SDS011;6549;53.128;8.182;2024-01-15T02:45:17;7.00;;;1.25;;
12968;SDS011;6549;53.128;8.182;2024-01-15T02:48:17;9.45;;;1.33;;
12968;SDS011;6549;53.128;8.182;2024-01-15T02:51:17;7.28;;;1.45;;
12968;SDS011;6549;53.128;8.182;2024-01-15T02:54:18;8.02;;;1.90;;
12968;SDS011;6549;53.128;8.182;2024-01-15T02:57:18;8.60;;;1.60;;
12968;SDS011;6549;53.128;8.182;2024-01-15T03:00:18;5.35;;;1.30;;
12968;SDS011;6549;53.128;8.182;2024-01-15T03:03:19;7.22;;;2.00;;
12968;SDS011;6549;53.128;8.182;2024-01-15T03:06:19;8.57;;;1.48;;
12968;SDS011;6549;53.128;8.182;2024-01-15T03:09:19;9.80;;;1.35;;
12968;SDS011;6549;53.128;8.182;2024-01-15T03:12:20;7.95;;;1.40;;
12968;SDS011;6549;53.128;8.182;2024-01-15T03:15:20;8.82;;;1.52;;
12968;SDS011;6549;53.128;8.182;2024-01-15T03:18:20;11.00;;;1.88;;
12968;SDS011;6549;53.128;8.182;2024-01-15T03:21:21;7.10;;;1.02;;
12968;SDS011;6549;53.128;8.182;2024-01-15T03:24:21;7.65;;;1.33;;
12968;SDS011;6549;53.128;8.182;2024-01-15T03:27:21;7.10;;;1.20;;
12968;SDS011;6549;53.128;8.182;2024-01-15T03:30:21;7.18;;;1.50;;
12968;SDS011;6549;53.128;8.182;2024-01-15T03:33:22;12.95;;;1.90;;
12968;SDS011;6549;53.128;8.182;2024-01-15T03:36:22;9.40;;;1.92;;
12968;SDS011;6549;53.128;8.182;2024-01-15T03:39:22;7.63;;;1.60;;
12968;SDS011;6549;53.128;8.182;2024-01-15T03:42:23;12.00;;;1.55;;
12968;SDS011;6549;53.128;8.182;2024-01-15T03:45:23;9.30;;;1.58;;
12968;SDS011;6549;53.128;8.182;2024-01-15T03:48:23;8.98;;;1.83;;
12968;SDS011;6549;53.128;8.182;2024-01-15T03:51:24;9.70;;;1.63;;
12968;SDS011;6549;53.128;8.182;2024-01-15T03:54:24;9.13;;;1.70;;
12968;SDS011;6549;53.128;8.182;2024-01-15T03:57:24;11.10;;;1.60;;
12968;SDS011;6549;53.128;8.182;2024-01-15T04:00:25;8.45;;;1.30;;
12968;SDS011;6549;53.128;8.182;2024-01-15T04:03:26;8.52;;;2.05;;
12968;SDS011;6549;53.128;8.182;2024-01-15T04:06:26;11.55;;;2.00;;
12968;SDS011;6549;53.128;8.182;2024-01-15T04:09:26;6.15;;;1.40;;
12968;SDS011;6549;53.128;8.182;2024-01-15T04:12:26;6.32;;;1.52;;
12968;SDS011;6549;53.128;8.182;2024-01-15T04:15:27;11.77;;;1.48;;
12968;SDS011;6549;53.128;8.182;2024-01-15T04:18:27;9.77;;;1.50;;
12968;SDS011;6549;53.128;8.182;2024-01-15T04:21:28;8.25;;;1.17;;
12968;SDS011;6549;53.128;8.182;2024-01-15T04:24:28;8.82;;;1.52;;
12968;SDS011;6549;53.128;8.182;2024-01-15T04:27:30;9.65;;;1.40;;
12968;SDS011;6549;53.128;8.182;2024-01-15T04:30:30;10.23;;;1.70;;
12968;SDS011;6549;53.128;8.182;2024-01-15T04:33:30;9.73;;;1.58;;
12968;SDS011;6549;53.128;8.182;2024-01-15T04:36:30;10.32;;;1.77;;
12968;SDS011;6549;53.128;8.182;2024-01-15T04:39:31;11.68;;;1.65;;
12968;SDS011;6549;53.128;8.182;2024-01-15T04:42:31;11.40;;;1.95;;
12968;SDS011;6549;53.128;8.182;2024-01-15T04:45:31;11.82;;;1.85;;
12968;SDS011;6549;53.128;8.182;2024-01-15T04:48:32;11.70;;;1.95;;
12968;SDS011;6549;53.128;8.182;2024-01-15T04:51:33;9.15;;;1.85;;
12968;SDS011;6549;53.128;8.182;2024-01-15T04:54:34;15.48;;;1.90;;
12968;SDS011;6549;53.128;8.182;2024-01-15T04:57:35;10.23;;;1.58;;
12968;SDS011;6549;53.128;8.182;2024-01-15T05:00:35;13.77;;;1.40;;
12968;SDS011;6549;53.128;8.182;2024-01-15T05:03:35;11.90;;;1.65;;
12968;SDS011;6549;53.128;8.182;2024-01-15T05:06:36;8.70;;;1.55;;
12968;SDS011;6549;53.128;8.182;2024-01-15T05:09:36;10.45;;;1.70;;
12968;SDS011;6549;53.128;8.182;2024-01-15T05:12:36;10.05;;;1.70;;
12968;SDS011;6549;53.128;8.182;2024-01-15T05:15:37;11.25;;;1.80;;
12968;SDS011;6549;53.128;8.182;2024-01-15T05:18:37;9.65;;;1.92;;
12968;SDS011;6549;53.128;8.182;2024-01-15T05:21:37;14.48;;;2.03;;
12968;SDS011;6549;53.128;8.182;2024-01-15T05:24:38;10.07;;;1.75;;
12968;SDS011;6549;53.128;8.182;2024-01-15T05:27:38;12.00;;;1.27;;
12968;SDS011;6549;53.128;8.182;2024-01-15T05:30:38;13.75;;;1.83;;
12968;SDS011;6549;53.128;8.182;2024-01-15T05:33:38;12.50;;;1.67;;
12968;SDS011;6549;53.128;8.182;2024-01-15T05:36:39;9.20;;;1.55;;
12968;SDS011;6549;53.128;8.182;2024-01-15T05:39:39;13.63;;;1.80;;
12968;SDS011;6549;53.128;8.182;2024-01-15T05:42:40;11.02;;;1.80;;
12968;SDS011;6549;53.128;8.182;2024-01-15T05:45:42;11.18;;;1.50;;
12968;SDS011;6549;53.128;8.182;2024-01-15T05:48:44;10.07;;;1.80;;
12968;SDS011;6549;53.128;8.182;2024-01-15T05:51:44;8.23;;;1.63;;
12968;SDS011;6549;53.128;8.182;2024-01-15T05:54:45;10.43;;;1.60;;
12968;SDS011;6549;53.128;8.182;2024-01-15T05:57:45;8.57;;;1.05;;
12968;SDS011;6549;53.128;8.182;2024-01-15T06:00:45;8.18;;;1.50;;
12968;SDS011;6549;53.128;8.182;2024-01-15T06:03:46;10.20;;;1.75;;
12968;SDS011;6549;53.128;8.182;2024-01-15T06:06:46;8.10;;;1.25;;
12968;SDS011;6549;53.128;8.182;2024-01-15T06:09:46;10.75;;;1.48;;
12968;SDS011;6549;53.128;8.182;2024-01-15T06:12:47;10.93;;;1.42;;
12968;SDS011;6549;53.128;8.182;2024-01-15T06:15:47;12.77;;;2.08;;
12968;SDS011;6549;53.128;8.182;2024-01-15T06:18:47;6.32;;;1.77;;
12968;SDS011;6549;53.128;8.182;2024-01-15T06:21:48;10.52;;;1.95;;
12968;SDS011;6549;53.128;8.182;2024-01-15T06:24:48;8.02;;;1.92;;
12968;SDS011;6549;53.128;8.182;2024-01-15T06:27:48;9.18;;;2.10;;
12968;SDS011;6549;53.128;8.182;2024-01-15T06:30:49;8.63;;;1.20;;
12968;SDS011;6549;53.128;8.182;2024-01-15T06:33:49;6.05;;;1.40;;
12968;SDS011;6549;53.128;8.182;2024-01-15T06:36:49;7.63;;;1.40;;
12968;SDS011;6549;53.128;8.182;2024-01-15T06:39:50;8.05;;;1.30;;
12968;SDS011;6549;53.128;8.182;2024-01-15T06:42:50;7.63;;;1.27;;
12968;SDS011;6549;53.128;8.182;2024-01-15T06:45:50;10.77;;;1.90;;
12968;SDS011;6549;53.128;8.182;2024-01-15T06:48:51;14.20;;;2.40;;
12968;SDS011;6549;53.128;8.182;2024-01-15T06:51:51;9.18;;;1.75;;
12968;SDS011;6549;53.128;8.182;2024-01-15T06:54:52;17.23;;;2.97;;
12968;SDS011;6549;53.128;8.182;2024-01-15T06:57:52;7.90;;;2.78;;
12968;SDS011;6549;53.128;8.182;2024-01-15T07:00:52;10.25;;;2.50;;
12968;SDS011;6549;53.128;8.182;2024-01-15T07:03:53;10.68;;;1.90;;
12968;SDS011;6549;53.128;8.182;2024-01-15T07:06:53;8.18;;;2.05;;
12968;SDS011;6549;53.128;8.182;2024-01-15T07:09:53;7.75;;;2.00;;
12968;SDS011;6549;53.128;8.182;2024-01-15T07:12:54;13.93;;;2.95;;
12968;SDS011;6549;53.128;8.182;2024-01-15T07:15:54;15.02;;;3.35;;
12968;SDS011;6549;53.128;8.182;2024-01-15T07:18:54;8.63;;;2.42;;
12968;SDS011;6549;53.128;8.182;2024-01-15T07:21:55;5.80;;;1.20;;
12968;SDS011;6549;53.128;8.182;2024-01-15T07:24:55;7.22;;;1.10;;
12968;SDS011;6549;53.128;8.182;2024-01-15T07:27:55;5.20;;;1.10;;
12968;SDS011;6549;53.128;8.182;2024-01-15T07:30:56;3.97;;;1.30;;
12968;SDS011;6549;53.128;8.182;2024-01-15T07:33:57;5.25;;;1.88;;
12968;SDS011;6549;53.128;8.182;2024-01-15T07:36:57;4.00;;;1.35;;
12968;SDS011;6549;53.128;8.182;2024-01-15T07:39:58;7.20;;;1.08;;
12968;SDS011;6549;53.128;8.182;2024-01-15T07:42:58;3.45;;;1.25;;
12968;SDS011;6549;53.128;8.182;2024-01-15T07:45:58;5.32;;;0.93;;
12968;SDS011;6549;53.128;8.182;2024-01-15T07:48:59;4.07;;;0.90;;
12968;SDS011;6549;53.128;8.182;2024-01-15T07:51:59;6.53;;;1.20;;
12968;SDS011;6549;53.128;8.182;2024-01-15T07:54:59;11.63;;;1.52;;
12968;SDS011;6549;53.128;8.182;2024-01-15T07:58:00;11.25;;;1.15;;
12968;SDS011;6549;53.128;8.182;2024-01-15T08:01:01;1.95;;;1.00;;
12968;SDS011;6549;53.128;8.182;2024-01-15T08:04:01;7.55;;;1.50;;
12968;SDS011;6549;53.128;8.182;2024-01-15T08:07:02;12.38;;;1.60;;
12968;SDS011;6549;53.128;8.182;2024-01-15T08:10:03;8.50;;;1.52;;
12968;SDS011;6549;53.128;8.182;2024-01-15T08:13:03;8.25;;;1.20;;
12968;SDS011;6549;53.128;8.182;2024-01-15T08:16:03;11.95;;;1.60;;
12968;SDS011;6549;53.128;8.182;2024-01-15T08:19:04;5.75;;;1.30;;
12968;SDS011;6549;53.128;8.182;2024-01-15T08:22:05;9.70;;;1.48;;
12968;SDS011;6549;53.128;8.182;2024-01-15T08:25:05;9.15;;;1.60;;
12968;SDS011;6549;53.128;8.182;2024-01-15T08:28:06;14.48;;;1.60;;
12968;SDS011;6549;53.128;8.182;2024-01-15T08:31:08;15.50;;;2.17;;
12968;SDS011;6549;53.128;8.182;2024-01-15T08:34:09;9.07;;;1.55;;
12968;SDS011;6549;53.128;8.182;2024-01-15T08:37:09;8.48;;;1.55;;
12968;SDS011;6549;53.128;8.182;2024-01-15T08:40:10;8.35;;;1.67;;
12968;SDS011;6549;53.128;8.182;2024-01-15T08:43:10;6.45;;;1.42;;
12968;SDS011;6549;53.128;8.182;2024-01-15T08:46:11;9.20;;;1.88;;
12968;SDS011;6549;53.128;8.182;2024-01-15T08:49:11;7.85;;;1.48;;
12968;SDS011;6549;53.128;8.182;2024-01-15T08:52:11;6.22;;;1.33;;
12968;SDS011;6549;53.128;8.182;2024-01-15T08:55:12;5.25;;;1.17;;
12968;SDS011;6549;53.128;8.182;2024-01-15T08:58:13;7.80;;;1.50;;
12968;SDS011;6549;53.128;8.182;2024-01-15T09:01:14;6.93;;;1.98;;
12968;SDS011;6549;53.128;8.182;2024-01-15T09:04:14;7.82;;;1.60;;
12968;SDS011;6549;53.128;8.182;2024-01-15T09:07:14;8.60;;;1.65;;
12968;SDS011;6549;53.128;8.182;2024-01-15T09:10:14;9.70;;;1.85;;
12968;SDS011;6549;53.128;8.182;2024-01-15T09:13:15;9.23;;;1.63;;
12968;SDS011;6549;53.128;8.182;2024-01-15T09:16:16;7.20;;;1.50;;
12968;SDS011;6549;53.128;8.182;2024-01-15T09:19:17;5.40;;;1.58;;
12968;SDS011;6549;53.128;8.182;2024-01-15T09:22:17;6.50;;;1.63;;
12968;SDS011;6549;53.128;8.182;2024-01-15T09:25:20;3.92;;;1.20;;
12968;SDS011;6549;53.128;8.182;2024-01-15T09:28:20;9.07;;;1.98;;
12968;SDS011;6549;53.128;8.182;2024-01-15T09:31:21;5.68;;;1.30;;
12968;SDS011;6549;53.128;8.182;2024-01-15T09:34:21;6.88;;;1.40;;
12968;SDS011;6549;53.128;8.182;2024-01-15T09:37:22;8.45;;;1.73;;
12968;SDS011;6549;53.128;8.182;2024-01-15T09:40:23;5.88;;;1.48;;
12968;SDS011;6549;53.128;8.182;2024-01-15T09:43:25;8.27;;;1.48;;
12968;SDS011;6549;53.128;8.182;2024-01-15T09:46:26;7.57;;;1.60;;
12968;SDS011;6549;53.128;8.182;2024-01-15T09:49:26;8.50;;;1.52;;
12968;SDS011;6549;53.128;8.182;2024-01-15T09:52:27;5.22;;;1.20;;
12968;SDS011;6549;53.128;8.182;2024-01-15T09:55:27;8.75;;;1.92;;
12968;SDS011;6549;53.128;8.182;2024-01-15T09:58:29;9.50;;;2.23;;
12968;SDS011;6549;53.128;8.182;2024-01-15T10:01:31;7.13;;;1.33;;
12968;SDS011;6549;53.128;8.182;2024-01-15T10:04:32;8.20;;;1.77;;
12968;SDS011;6549;53.128;8.182;2024-01-15T10:07:33;11.02;;;2.15;;
12968;SDS011;6549;53.128;8.182;2024-01-15T10:10:36;10.57;;;1.60;;
12968;SDS011;6549;53.128;8.182;2024-01-15T10:13:37;10.88;;;2.00;;
12968;SDS011;6549;53.128;8.182;2024-01-15T10:19:47;9.23;;;1.40;;
12968;SDS011;6549;53.128;8.182;2024-01-15T10:22:48;11.27;;;1.60;;
12968;SDS011;6549;53.128;8.182;2024-01-15T10:25:50;7.72;;;2.00;;
12968;SDS011;6549;53.128;8.182;2024-01-15T10:28:51;8.40;;;1.70;;
12968;SDS011;6549;53.128;8.182;2024-01-15T10:31:54;6.68;;;1.50;;
12968;SDS011;6549;53.128;8.182;2024-01-15T10:34:55;7.63;;;1.45;;
12968;SDS011;6549;53.128;8.182;2024-01-15T10:37:55;6.93;;;1.45;;
12968;SDS011;6549;53.128;8.182;2024-01-15T10:40:56;2.85;;;1.33;;
12968;SDS011;6549;53.128;8.182;2024-01-15T10:43:57;8.10;;;1.95;;
12968;SDS011;6549;53.128;8.182;2024-01-15T10:46:57;7.18;;;1.40;;
12968;SDS011;6549;53.128;8.182;2024-01-15T10:49:57;9.02;;;1.75;;
12968;SDS011;6549;53.128;8.182;2024-01-15T10:52:58;5.15;;;1.50;;
12968;SDS011;6549;53.128;8.182;2024-01-15T10:55:59;5.03;;;1.45;;
12968;SDS011;6549;53.128;8.182;2024-01-15T10:59:00;4.47;;;1.30;;
12968;SDS011;6549;53.128;8.182;2024-01-15T11:02:02;4.30;;;1.27;;
12968;SDS011;6549;53.128;8.182;2024-01-15T11:05:03;5.93;;;1.75;;
12968;SDS011;6549;53.128;8.182;2024-01-15T11:08:04;7.45;;;1.50;;
12968;SDS011;6549;53.128;8.182;2024-01-15T11:11:06;9.25;;;1.55;;
12968;SDS011;6549;53.128;8.182;2024-01-15T11:14:07;7.97;;;1.50;;
12968;SDS011;6549;53.128;8.182;2024-01-15T11:17:08;7.13;;;1.67;;
12968;SDS011;6549;53.128;8.182;2024-01-15T11:20:09;8.10;;;1.73;;
12968;SDS011;6549;53.128;8.182;2024-01-15T11:23:11;3.42;;;1.25;;
12968;SDS011;6549;53.128;8.182;2024-01-15T11:26:46;5.97;;;1.40;;
12968;SDS011;6549;53.128;8.182;2024-01-15T11:29:47;4.50;;;1.30;;
12968;SDS011;6549;53.128;8.182;2024-01-15T11:33:04;6.43;;;1.50;;
12968;SDS011;6549;53.128;8.182;2024-01-15T11:36:07;8.32;;;1.50;;
12968;SDS011;6549;53.128;8.182;2024-01-15T11:42:26;9.10;;;1.67;;
12968;SDS011;6549;53.128;8.182;2024-01-15T11:45:27;5.53;;;1.70;;
12968;SDS011;6549;53.128;8.182;2024-01-15T11:48:30;5.82;;;1.50;;
12968;SDS011;6549;53.128;8.182;2024-01-15T11:51:42;4.65;;;1.80;;
12968;SDS011;6549;53.128;8.182;2024-01-15T11:54:45;7.68;;;1.50;;
12968;SDS011;6549;53.128;8.182;2024-01-15T11:57:54;6.93;;;1.75;;
12968;SDS011;6549;53.128;8.182;2024-01-15T12:00:55;4.15;;;1.40;;
12968;SDS011;6549;53.128;8.182;2024-01-15T12:03:55;5.03;;;1.40;;
12968;SDS011;6549;53.128;8.182;2024-01-15T12:06:58;5.55;;;1.58;;
12968;SDS011;6549;53.128;8.182;2024-01-15T12:09:58;6.82;;;1.58;;
12968;SDS011;6549;53.128;8.182;2024-01-15T12:16:19;5.78;;;1.70;;
12968;SDS011;6549;53.128;8.182;2024-01-15T12:19:19;3.63;;;1.40;;
12968;SDS011;6549;53.128;8.182;2024-01-15T12:22:20;7.95;;;1.92;;
12968;SDS011;6549;53.128;8.182;2024-01-15T12:25:21;7.50;;;1.80;;
12968;SDS011;6549;53.128;8.182;2024-01-15T12:28:22;4.43;;;1.53;;
12968;SDS011;6549;53.128;8.182;2024-01-15T12:31:22;5.40;;;1.60;;
12968;SDS011;6549;53.128;8.182;2024-01-15T12:34:23;5.70;;;1.60;;
12968;SDS011;6549;53.128;8.182;2024-01-15T12:37:23;3.65;;;1.38;;
12968;SDS011;6549;53.128;8.182;2024-01-15T12:40:24;4.65;;;1.30;;
12968;SDS011;6549;53.128;8.182;2024-01-15T12:43:24;3.15;;;1.60;;
12968;SDS011;6549;53.128;8.182;2024-01-15T12:46:25;4.80;;;1.55;;
12968;SDS011;6549;53.128;8.182;2024-01-15T12:49:25;7.00;;;1.65;;
12968;SDS011;6549;53.128;8.182;2024-01-15T12:52:29;5.78;;;1.60;;
12968;SDS011;6549;53.128;8.182;2024-01-15T12:55:29;4.45;;;1.58;;
12968;SDS011;6549;53.128;8.182;2024-01-15T12:58:30;7.28;;;1.63;;
12968;SDS011;6549;53.128;8.182;2024-01-15T13:01:30;5.00;;;1.90;;
12968;SDS011;6549;53.128;8.182;2024-01-15T13:04:30;4.38;;;1.50;;
12968;SDS011;6549;53.128;8.182;2024-01-15T13:07:31;5.53;;;1.60;;
12968;SDS011;6549;53.128;8.182;2024-01-15T13:10:32;4.15;;;1.52;;
12968;SDS011;6549;53.128;8.182;2024-01-15T13:13:32;6.50;;;2.20;;
12968;SDS011;6549;53.128;8.182;2024-01-15T13:16:34;5.68;;;1.90;;
12968;SDS011;6549;53.128;8.182;2024-01-15T13:19:34;4.78;;;1.83;;
12968;SDS011;6549;53.128;8.182;2024-01-15T13:22:34;4.47;;;1.55;;
12968;SDS011;6549;53.128;8.182;2024-01-15T13:25:35;3.45;;;1.58;;
12968;SDS011;6549;53.128;8.182;2024-01-15T13:28:38;4.90;;;1.48;;
12968;SDS011;6549;53.128;8.182;2024-01-15T13:31:38;4.63;;;1.60;;
12968;SDS011;6549;53.128;8.182;2024-01-15T13:34:38;4.45;;;1.40;;
12968;SDS011;6549;53.128;8.182;2024-01-15T13:37:39;4.78;;;1.80;;
12968;SDS011;6549;53.128;8.182;2024-01-15T13:40:41;3.73;;;1.60;;
12968;SDS011;6549;53.128;8.182;2024-01-15T13:43:42;3.33;;;1.80;;
12968;SDS011;6549;53.128;8.182;2024-01-15T13:46:42;5.07;;;2.10;;
12968;SDS011;6549;53.128;8.182;2024-01-15T13:49:42;3.55;;;1.77;;
12968;SDS011;6549;53.128;8.182;2024-01-15T13:52:43;5.80;;;1.83;;
12968;SDS011;6549;53.128;8.182;2024-01-15T13:55:43;5.45;;;1.90;;
12968;SDS011;6549;53.128;8.182;2024-01-15T13:58:44;3.20;;;1.90;;
12968;SDS011;6549;53.128;8.182;2024-01-15T14:01:44;3.42;;;1.85;;
12968;SDS011;6549;53.128;8.182;2024-01-15T14:04:44;5.28;;;2.60;;
12968;SDS011;6549;53.128;8.182;2024-01-15T14:07:45;5.00;;;1.98;;
12968;SDS011;6549;53.128;8.182;2024-01-15T14:10:45;4.45;;;1.90;;
12968;SDS011;6549;53.128;8.182;2024-01-15T14:13:45;5.45;;;2.25;;
12968;SDS011;6549;53.128;8.182;2024-01-15T14:16:46;4.88;;;2.53;;
12968;SDS011;6549;53.128;8.182;2024-01-15T14:19:46;4.47;;;2.30;;
12968;SDS011;6549;53.128;8.182;2024-01-15T14:22:47;4.60;;;2.15;;
12968;SDS011;6549;53.128;8.182;2024-01-15T14:25:47;4.13;;;1.92;;
12968;SDS011;6549;53.128;8.182;2024-01-15T14:28:48;4.70;;;2.03;;
12968;SDS011;6549;53.128;8.182;2024-01-15T14:31:49;3.55;;;1.83;;
12968;SDS011;6549;53.128;8.182;2024-01-15T14:34:49;3.47;;;2.08;;
12968;SDS011;6549;53.128;8.182;2024-01-15T14:37:49;3.47;;;1.73;;
12968;SDS011;6549;53.128;8.182;2024-01-15T14:40:50;3.85;;;1.83;;
12968;SDS011;6549;53.128;8.182;2024-01-15T14:43:50;2.75;;;1.48;;
12968;SDS011;6549;53.128;8.182;2024-01-15T14:46:50;2.63;;;1.80;;
12968;SDS011;6549;53.128;8.182;2024-01-15T14:49:51;3.47;;;1.50;;
12968;SDS011;6549;53.128;8.182;2024-01-15T14:52:51;2.47;;;1.35;;
12968;SDS011;6549;53.128;8.182;2024-01-15T14:55:52;2.95;;;1.50;;
12968;SDS011;6549;53.128;8.182;2024-01-15T14:58:54;4.45;;;1.45;;
12968;SDS011;6549;53.128;8.182;2024-01-15T15:01:54;3.13;;;1.23;;
12968;SDS011;6549;53.128;8.182;2024-01-15T15:04:54;2.92;;;1.75;;
12968;SDS011;6549;53.128;8.182;2024-01-15T15:07:57;3.03;;;1.40;;
12968;SDS011;6549;53.128;8.182;2024-01-15T15:10:58;5.25;;;1.40;;
12968;SDS011;6549;53.128;8.182;2024-01-15T15:13:58;3.13;;;1.50;;
12968;SDS011;6549;53.128;8.182;2024-01-15T15:17:00;4.68;;;1.58;;
12968;SDS011;6549;53.128;8.182;2024-01-15T15:20:00;4.90;;;1.98;;
12968;SDS011;6549;53.128;8.182;2024-01-15T15:23:02;4.13;;;1.77;;
12968;SDS011;6549;53.128;8.182;2024-01-15T15:29:05;7.45;;;1.70;;
12968;SDS011;6549;53.128;8.182;2024-01-15T15:32:06;4.60;;;1.40;;
12968;SDS011;6549;53.128;8.182;2024-01-15T15:35:06;1.73;;;1.10;;
12968;SDS011;6549;53.128;8.182;2024-01-15T15:38:07;4.35;;;1.40;;
12968;SDS011;6549;53.128;8.182;2024-01-15T15:41:07;5.10;;;2.00;;
12968;SDS011;6549;53.128;8.182;2024-01-15T15:44:08;6.60;;;2.65;;
12968;SDS011;6549;53.128;8.182;2024-01-15T15:47:09;4.80;;;1.98;;
12968;SDS011;6549;53.128;8.182;2024-01-15T15:50:10;10.35;;;3.50;;
12968;SDS011;6549;53.128;8.182;2024-01-15T15:53:11;6.38;;;1.90;;
12968;SDS011;6549;53.128;8.182;2024-01-15T15:56:11;7.13;;;1.88;;
12968;SDS011;6549;53.128;8.182;2024-01-15T15:59:11;6.60;;;1.80;;
12968;SDS011;6549;53.128;8.182;2024-01-15T16:02:13;6.93;;;1.60;;
12968;SDS011;6549;53.128;8.182;2024-01-15T16:05:14;12.60;;;3.60;;
12968;SDS011;6549;53.128;8.182;2024-01-15T16:08:14;8.35;;;2.50;;
12968;SDS011;6549;53.128;8.182;2024-01-15T16:11:14;4.95;;;1.88;;
12968;SDS011;6549;53.128;8.182;2024-01-15T16:14:15;7.40;;;2.25;;
12968;SDS011;6549;53.128;8.182;2024-01-15T16:17:16;6.03;;;2.45;;
12968;SDS011;6549;53.128;8.182;2024-01-15T16:20:17;10.07;;;2.67;;
12968;SDS011;6549;53.128;8.182;2024-01-15T16:23:17;6.93;;;2.15;;
12968;SDS011;6549;53.128;8.182;2024-01-15T16:26:18;3.28;;;1.42;;
12968;SDS011;6549;53.128;8.182;2024-01-15T16:29:18;6.97;;;1.90;;
12968;SDS011;6549;53.128;8.182;2024-01-15T16:32:19;11.57;;;2.33;;
12968;SDS011;6549;53.128;8.182;2024-01-15T16:35:19;5.13;;;2.00;;
12968;SDS011;6549;53.128;8.182;2024-01-15T16:38:20;8.15;;;2.08;;
12968;SDS011;6549;53.128;8.182;2024-01-15T16:41:20;6.50;;;2.10;;
12968;SDS011;6549;53.128;8.182;2024-01-15T16:44:22;6.00;;;1.60;;
12968;SDS011;6549;53.128;8.182;2024-01-15T16:47:23;5.90;;;1.95;;
12968;SDS011;6549;53.128;8.182;2024-01-15T16:50:24;10.07;;;2.00;;
12968;SDS011;6549;53.128;8.182;2024-01-15T16:53:24;6.75;;;1.50;;
12968;SDS011;6549;53.128;8.182;2024-01-15T16:56:24;5.38;;;1.73;;
12968;SDS011;6549;53.128;8.182;2024-01-15T16:59:25;8.07;;;2.10;;
12968;SDS011;6549;53.128;8.182;2024-01-15T17:02:25;10.00;;;2.17;;
12968;SDS011;6549;53.128;8.182;2024-01-15T17:05:25;6.25;;;2.10;;
12968;SDS011;6549;53.128;8.182;2024-01-15T17:08:26;8.32;;;2.30;;
12968;SDS011;6549;53.128;8.182;2024-01-15T17:11:26;5.72;;;2.10;;
12968;SDS011;6549;53.128;8.182;2024-01-15T17:14:27;6.15;;;1.63;;
12968;SDS011;6549;53.128;8.182;2024-01-15T17:17:28;5.22;;;1.77;;
12968;SDS011;6549;53.128;8.182;2024-01-15T17:20:28;2.83;;;1.60;;
12968;SDS011;6549;53.128;8.182;2024-01-15T17:23:29;5.28;;;2.00;;
12968;SDS011;6549;53.128;8.182;2024-01-15T17:26:29;5.43;;;2.20;;
12968;SDS011;6549;53.128;8.182;2024-01-15T17:29:29;8.98;;;2.10;;
12968;SDS011;6549;53.128;8.182;2024-01-15T17:32:30;4.18;;;2.20;;
12968;SDS011;6549;53.128;8.182;2024-01-15T17:35:30;16.33;;;6.88;;
12968;SDS011;6549;53.128;8.182;2024-01-15T17:38:30;9.73;;;4.45;;
12968;SDS011;6549;53.128;8.182;2024-01-15T17:41:31;9.57;;;2.90;;
12968;SDS011;6549;53.128;8.182;2024-01-15T17:44:32;7.10;;;2.88;;
12968;SDS011;6549;53.128;8.182;2024-01-15T17:47:33;12.27;;;4.60;;
12968;SDS011;6549;53.128;8.182;2024-01-15T17:50:33;13.27;;;4.65;;
12968;SDS011;6549;53.128;8.182;2024-01-15T17:53:34;8.95;;;3.80;;
12968;SDS011;6549;53.128;8.182;2024-01-15T17:56:37;10.20;;;3.80;;
12968;SDS011;6549;53.128;8.182;2024-01-15T17:59:38;10.00;;;6.28;;
12968;SDS011;6549;53.128;8.182;2024-01-15T18:02:39;9.88;;;3.78;;
12968;SDS011;6549;53.128;8.182;2024-01-15T18:05:39;10.00;;;4.32;;
12968;SDS011;6549;53.128;8.182;2024-01-15T18:08:40;9.88;;;3.97;;
12968;SDS011;6549;53.128;8.182;2024-01-15T18:11:40;7.13;;;3.60;;
12968;SDS011;6549;53.128;8.182;2024-01-15T18:14:41;7.43;;;3.63;;
12968;SDS011;6549;53.128;8.182;2024-01-15T18:17:41;9.25;;;4.05;;
12968;SDS011;6549;53.128;8.182;2024-01-15T18:20:41;10.15;;;4.38;;
12968;SDS011;6549;53.128;8.182;2024-01-15T18:23:42;9.15;;;3.85;;
12968;SDS011;6549;53.128;8.182;2024-01-15T18:26:42;6.00;;;3.13;;
12968;SDS011;6549;53.128;8.182;2024-01-15T18:29:43;10.38;;;4.03;;
12968;SDS011;6549;53.128;8.182;2024-01-15T18:32:44;8.98;;;5.10;;
12968;SDS011;6549;53.128;8.182;2024-01-15T18:35:44;8.63;;;3.75;;